Time;durP1;ratioP1;P1;durP2;ratioP2;P2;SDS_P1;SDS_P2;PMS_P1;PMS_P2;Temp;Humidity;BMP_temperature;BMP_pressure;BME280_temperature;BME280_humidity;BME280_pressure;Samples;Min_cycle;Max_cycle;Signal;HPM_P1;HPM_P2
2024/03/08 00:00:18;;;;;;;71.73;36.07;;;;;;;3.50;100.00;100751.25;1471471;88;22954;-76
2024/03/08 00:02:46;;;;;;;62.33;33.87;;;;;;;3.45;100.00;100748.06;1471992;88;23090;-76
2024/03/08 00:05:13;;;;;;;63.73;32.43;;;;;;;3.45;100.00;100748.06;1469330;88;21435;-77
2024/03/08 00:07:41;;;;;;;58.10;31.03;;;;;;;3.48;100.00;100742.67;1469213;88;22201;-77
2024/03/08 00:10:11;;;;;;;58.63;32.27;;;;;;;3.48;100.00;100744.42;1463338;88;23263;-76
2024/03/08 00:12:44;;;;;;;62.37;32.73;;;;;;;3.44;100.00;100744.25;1476438;88;22241;-76
2024/03/08 00:15:14;;;;;;;65.70;37.27;;;;;;;3.45;100.00;100738.91;1470266;88;22547;-76
2024/03/08 00:17:42;;;;;;;60.30;34.03;;;;;;;3.39;100.00;100729.69;1469225;88;21837;-76
2024/03/08 00:20:08;;;;;;;61.73;33.70;;;;;;;3.42;100.00;100740.41;1465643;88;22151;-76
2024/03/08 00:22:36;;;;;;;59.10;32.13;;;;;;;3.39;100.00;100735.36;1465467;88;21434;-77
2024/03/08 00:25:05;;;;;;;60.33;32.37;;;;;;;3.41;100.00;100741.36;1464411;88;22247;-76
2024/03/08 00:27:31;;;;;;;60.07;31.90;;;;;;;3.39;100.00;100740.59;1466843;88;22192;-76
2024/03/08 00:29:58;;;;;;;61.13;33.23;;;;;;;3.36;100.00;100740.78;1469841;88;22111;-76
2024/03/08 00:32:25;;;;;;;50.33;29.40;;;;;;;3.36;100.00;100739.48;1476127;88;23267;-77
2024/03/08 00:34:54;;;;;;;59.70;30.60;;;;;;;3.31;100.00;100733.68;1469124;88;22110;-77
2024/03/08 00:37:21;;;;;;;56.83;31.57;;;;;;;3.31;100.00;100737.60;1464815;88;23006;-76
2024/03/08 00:39:52;;;;;;;64.10;33.50;;;;;;;3.30;100.00;100737.24;1471330;88;22148;-77
2024/03/08 00:42:20;;;;;;;65.00;30.95;;;;;;;3.27;100.00;100736.13;1477249;88;22207;-76
2024/03/08 00:44:48;;;;;;;58.57;33.17;;;;;;;3.28;100.00;100737.80;1459027;88;22285;-77
2024/03/08 00:47:14;;;;;;;55.27;27.77;;;;;;;3.30;100.00;100735.94;1464866;88;22251;-77
2024/03/08 00:49:42;;;;;;;62.30;31.67;;;;;;;3.29;100.00;100735.57;1468352;88;23612;-76
2024/03/08 00:52:09;;;;;;;53.73;30.83;;;;;;;3.29;100.00;100735.57;1465903;88;21960;-77
2024/03/08 00:54:38;;;;;;;62.43;31.23;;;;;;;3.30;100.00;100736.77;1474549;88;22257;-76
2024/03/08 00:57:06;;;;;;;58.13;29.30;;;;;;;3.28;100.00;100736.48;1453101;88;22186;-76
2024/03/08 00:59:33;;;;;;;53.70;29.03;;;;;;;3.29;100.00;100739.02;1465415;88;22139;-76
2024/03/08 01:02:00;;;;;;;61.10;31.47;;;;;;;3.29;100.00;100739.02;1465207;88;21545;-76
2024/03/08 01:04:32;;;;;;;58.03;31.37;;;;;;;3.26;100.00;100736.59;1464183;88;23051;-76
2024/03/08 01:06:59;;;;;;;55.17;30.20;;;;;;;3.18;100.00;100736.69;1467683;88;23052;-77
2024/03/08 01:09:26;;;;;;;54.90;28.83;;;;;;;3.14;100.00;100734.25;1468466;88;22059;-77
2024/03/08 01:11:55;;;;;;;59.87;31.40;;;;;;;3.16;100.00;100735.02;1466301;88;21826;-77
2024/03/08 01:14:22;;;;;;;51.90;30.97;;;;;;;3.14;100.00;100736.88;1477422;88;22059;-76
2024/03/08 01:16:49;;;;;;;60.80;30.70;;;;;;;3.15;100.00;100733.31;1468039;88;22212;-77
2024/03/08 01:19:16;;;;;;;57.47;28.10;;;;;;;3.12;100.00;100732.19;1450631;88;22156;-77
2024/03/08 01:21:43;;;;;;;55.73;31.20;;;;;;;3.18;100.00;100736.69;1464895;88;23122;-77
2024/03/08 01:24:09;;;;;;;65.83;32.17;;;;;;;3.12;100.00;100733.50;1453455;88;22247;-78
2024/03/08 01:26:35;;;;;;;68.00;30.60;;;;;;;3.11;100.00;100731.83;1462524;88;22152;-77
2024/03/08 01:29:03;;;;;;;56.47;30.33;;;;;;;3.12;100.00;100733.50;1468536;88;23084;-78
2024/03/08 01:31:30;;;;;;;55.60;30.37;;;;;;;3.14;100.00;100735.56;1469418;88;22281;-76
2024/03/08 01:33:58;;;;;;;51.93;28.13;;;;;;;3.14;100.00;100735.56;1470390;88;22961;-77
2024/03/08 01:36:24;;;;;;;57.77;30.00;;;;;;;3.13;100.00;100729.94;1468700;88;22923;-77
2024/03/08 01:38:52;;;;;;;61.43;33.93;;;;;;;3.11;100.00;100731.83;1465765;88;22147;-77
2024/03/08 01:41:19;;;;;;;61.60;32.47;;;;;;;3.10;100.00;100739.28;1468923;88;22041;-77
2024/03/08 01:43:45;;;;;;;56.87;30.10;;;;;;;3.04;100.00;100737.03;1456959;88;23160;-76
2024/03/08 01:46:16;;;;;;;62.30;29.70;;;;;;;3.03;100.00;100734.06;1450101;88;22089;-77
2024/03/08 01:48:43;;;;;;;64.80;31.02;;;;;;;3.01;100.00;100731.98;1469709;88;22177;-77
2024/03/08 01:51:11;;;;;;;67.03;31.27;;;;;;;2.99;100.00;100733.84;1470538;88;21687;-77
2024/03/08 01:53:38;;;;;;;59.77;29.60;;;;;;;2.97;100.00;100728.36;1475027;88;22173;-76
2024/03/08 01:56:06;;;;;;;60.87;30.77;;;;;;;2.98;100.00;100724.80;1476273;88;23165;-77
2024/03/08 01:58:33;;;;;;;55.33;31.40;;;;;;;2.97;100.00;100723.13;1468465;88;22273;-77
2024/03/08 02:01:00;;;;;;;66.33;33.33;;;;;;;2.94;100.00;100721.54;1465276;88;22081;-77
2024/03/08 02:03:26;;;;;;;67.27;31.63;;;;;;;2.93;100.00;100720.70;1472323;88;23092;-77
2024/03/08 02:05:52;;;;;;;69.70;29.57;;;;;;;2.96;100.00;100729.27;1475136;88;22042;-77
2024/03/08 02:08:22;;;;;;;63.47;33.13;;;;;;;2.91;100.00;100725.64;1464186;88;22049;-77
2024/03/08 02:10:49;;;;;;;60.37;31.40;;;;;;;2.90;100.00;100733.09;1472687;88;22093;-77
2024/03/08 02:13:15;;;;;;;53.67;28.23;;;;;;;2.87;100.00;100729.35;1465285;88;23020;-77
2024/03/08 02:16:00;;;;;;;61.20;31.80;;;;;;;2.87;100.00;100725.44;1470846;88;22281;-77
2024/03/08 02:18:28;;;;;;;52.63;29.17;;;;;;;2.89;100.00;100724.89;1471552;88;22361;-76
2024/03/08 02:20:56;;;;;;;56.80;29.50;;;;;;;2.80;100.00;100726.75;1466982;88;22095;-76
2024/03/08 02:23:24;;;;;;;60.87;33.23;;;;;;;2.78;100.00;100718.98;1462478;88;23005;-77
2024/03/08 02:25:53;;;;;;;56.97;30.77;;;;;;;2.74;100.00;100717.96;1462961;88;22273;-77
2024/03/08 02:28:20;;;;;;;54.43;29.07;;;;;;;2.72;100.00;100716.73;1464584;88;22022;-77
2024/03/08 02:30:48;;;;;;;60.93;31.60;;;;;;;2.71;100.00;100718.98;1466682;88;22125;-76
2024/03/08 02:33:19;;;;;;;59.10;32.13;;;;;;;2.69;100.00;100718.22;1458369;88;22127;-76
2024/03/08 02:35:46;;;;;;;64.80;31.12;;;;;;;2.63;100.00;100710.27;1465973;88;22036;-76
2024/03/08 02:38:18;;;;;;;63.17;30.17;;;;;;;2.60;100.00;100716.15;1463169;88;21500;-76
2024/03/08 02:40:48;;;;;;;58.80;31.27;;;;;;;2.54;100.00;100723.88;1465989;88;22312;-77
2024/03/08 02:43:16;;;;;;;53.87;28.53;;;;;;;2.54;100.00;100731.72;1465822;88;23065;-77
2024/03/08 02:45:43;;;;;;;64.20;33.00;;;;;;;2.47;100.00;100720.78;1465913;88;22028;-77
2024/03/08 02:48:10;;;;;;;74.00;34.47;;;;;;;2.40;100.00;100723.36;1473410;88;22974;-76
2024/03/08 02:50:39;;;;;;;59.67;31.50;;;;;;;2.40;100.00;100723.36;1472704;88;22095;-77
2024/03/08 02:53:05;;;;;;;64.00;30.40;;;;;;;2.42;100.00;100729.81;1456261;88;22394;-77
2024/03/08 02:55:35;;;;;;;62.53;32.97;;;;;;;2.41;100.00;100728.95;1465122;88;23046;-76
2024/03/08 02:58:00;;;;;;;57.57;29.27;;;;;;;2.39;100.00;100728.69;1467226;88;23075;-76
2024/03/08 03:00:27;;;;;;;59.70;32.60;;;;;;;2.40;100.00;100729.05;1467189;88;22306;-77
2024/03/08 03:02:56;;;;;;;65.37;34.70;;;;;;;2.42;100.00;100732.43;1473221;88;21324;-76
2024/03/08 03:05:24;;;;;;;65.47;31.60;;;;;;;2.39;100.00;100735.22;1473215;88;22043;-77
2024/03/08 03:07:51;;;;;;;62.00;32.13;;;;;;;2.38;100.00;100730.91;1471239;88;21888;-76
2024/03/08 03:10:19;;;;;;;55.47;28.37;;;;;;;2.38;100.00;100730.91;1483947;88;22075;-76
2024/03/08 03:12:46;;;;;;;58.07;31.00;;;;;;;2.40;100.00;100736.89;1471133;88;22075;-76
2024/03/08 03:15:13;;;;;;;68.37;32.43;;;;;;;2.41;100.00;100735.48;1469127;88;22016;-76
2024/03/08 03:17:40;;;;;;;60.13;31.70;;;;;;;2.44;100.00;100734.47;1466113;88;22050;-76
2024/03/08 03:20:10;;;;;;;52.63;30.27;;;;;;;2.49;100.00;100735.89;1469625;88;22163;-76
2024/03/08 03:22:38;;;;;;;68.62;31.23;;;;;;;2.42;100.00;100729.81;1469643;88;22124;-75
2024/03/08 03:25:06;;;;;;;55.30;28.73;;;;;;;2.43;100.00;100733.62;1462725;88;21368;-76
2024/03/08 03:27:33;;;;;;;53.47;28.77;;;;;;;2.40;100.00;100734.28;1470956;88;22066;-75
2024/03/08 03:30:19;;;;;;;55.00;31.23;;;;;;;2.40;100.00;100734.28;1462335;88;22095;-76
2024/03/08 03:32:28;;;;;;;57.33;30.53;;;;;;;2.35;100.00;100729.78;1471446;88;23181;-76
2024/03/08 03:34:54;;;;;;;54.67;30.20;;;;;;;2.35;100.00;100729.78;1470678;88;22184;-76
2024/03/08 03:37:21;;;;;;;57.83;29.53;;;;;;;2.26;100.00;100725.45;1473268;88;22355;-76
2024/03/08 03:39:48;;;;;;;56.80;29.83;;;;;;;2.29;100.00;100730.97;1468279;88;22132;-75
2024/03/08 03:42:16;;;;;;;59.17;30.23;;;;;;;2.25;100.00;100738.14;1471683;88;22991;-76
2024/03/08 03:44:47;;;;;;;50.17;28.13;;;;;;;2.25;100.00;100738.14;1475856;88;22325;-76
2024/03/08 03:47:15;;;;;;;;;;;;;;;2.31;100.00;100744.79;1471095;88;22029;-75
2024/03/08 03:49:42;;;;;;;58.10;30.73;;;;;;;2.30;100.00;100742.25;1464662;88;20894;-75
2024/03/08 03:52:10;;;;;;;55.63;27.73;;;;;;;2.30;100.00;100742.25;1469461;88;21988;-76
2024/03/08 03:54:36;;;;;;;57.40;28.80;;;;;;;2.23;100.00;100742.60;1470349;88;22764;-77
2024/03/08 03:57:03;;;;;;;58.57;31.20;;;;;;;2.24;100.00;100744.30;1469812;88;22029;-76
2024/03/08 03:59:29;;;;;;;53.13;29.10;;;;;;;2.29;100.00;100752.33;1468295;88;22297;-76
2024/03/08 04:01:56;;;;;;;56.37;28.90;;;;;;;2.28;100.00;100742.83;1473002;88;22792;-76
2024/03/08 04:04:24;;;;;;;56.30;30.43;;;;;;;2.21;100.00;100747.06;1467087;88;22011;-76
2024/03/08 04:06:51;;;;;;;58.00;31.70;;;;;;;2.22;100.00;100748.77;1469222;88;22794;-76
2024/03/08 04:09:22;;;;;;;54.80;28.77;;;;;;;2.14;100.00;100745.73;1447990;88;21831;-76
2024/03/08 04:11:46;;;;;;;58.27;30.33;;;;;;;2.08;100.00;100738.25;1471263;88;22116;-76
2024/03/08 04:14:12;;;;;;;54.53;29.37;;;;;;;2.12;100.00;100742.36;1470395;88;23050;-76
2024/03/08 04:16:38;;;;;;;61.43;31.43;;;;;;;2.07;100.00;100741.77;1464288;88;22209;-76
2024/03/08 04:19:05;;;;;;;59.30;31.73;;;;;;;2.07;100.00;100741.77;1463200;88;22057;-76
2024/03/08 04:21:31;;;;;;;56.87;31.13;;;;;;;2.08;100.00;100741.33;1474689;88;21882;-76
2024/03/08 04:23:57;;;;;;;54.67;29.90;;;;;;;2.08;100.00;100741.33;1469267;88;21821;-75
2024/03/08 04:26:23;;;;;;;57.13;30.90;;;;;;;2.04;100.00;100732.80;1473375;88;22008;-76
2024/03/08 04:28:50;;;;;;;50.03;30.27;;;;;;;2.01;100.00;100727.31;1474160;88;21822;-75
2024/03/08 04:31:16;;;;;;;57.27;31.23;;;;;;;2.07;100.00;100737.84;1470337;88;22201;-76
2024/03/08 04:33:42;;;;;;;55.33;28.93;;;;;;;2.07;100.00;100737.84;1463928;88;22785;-75
2024/03/08 04:36:13;;;;;;;65.50;33.60;;;;;;;2.04;100.00;100734.11;1472778;88;21779;-75
2024/03/08 04:38:36;;;;;;;53.43;29.10;;;;;;;2.04;100.00;100734.11;1474764;88;22206;-76
2024/03/08 04:41:04;;;;;;;57.17;32.60;;;;;;;2.09;100.00;100748.22;1463066;88;22089;-75
2024/03/08 04:43:30;;;;;;;72.07;30.27;;;;;;;2.09;100.00;100748.22;1474314;88;22133;-75
2024/03/08 04:45:56;;;;;;;57.50;30.27;;;;;;;2.12;100.00;100751.50;1449348;88;22146;-76
2024/03/08 04:48:22;;;;;;;61.30;31.80;;;;;;;2.15;100.00;100747.41;1472255;88;22734;-75
2024/03/08 04:50:49;;;;;;;60.30;29.33;;;;;;;2.15;100.00;100747.41;1456394;88;23135;-76
2024/03/08 04:53:15;;;;;;;56.97;31.23;;;;;;;2.15;100.00;100755.23;1464915;88;21848;-76
2024/03/08 04:55:42;;;;;;;52.47;28.03;;;;;;;2.13;100.00;100749.28;1469450;88;22140;-76
2024/03/08 04:58:08;;;;;;;59.67;31.90;;;;;;;2.18;100.00;100757.68;1465367;88;22116;-75
2024/03/08 05:00:35;;;;;;;64.37;31.47;;;;;;;2.17;100.00;100757.31;1471183;88;22941;-77
2024/03/08 05:03:01;;;;;;;59.57;30.90;;;;;;;2.14;100.00;100765.32;1472167;88;21825;-79
2024/03/08 05:05:28;;;;;;;59.93;32.00;;;;;;;2.12;100.00;100768.47;1467938;88;21945;-79
2024/03/08 05:07:55;;;;;;;52.97;30.50;;;;;;;2.15;100.00;100765.69;1465073;88;21705;-79
2024/03/08 05:10:21;;;;;;;51.80;28.30;;;;;;;2.15;100.00;100765.69;1484477;88;21871;-79
2024/03/08 05:12:48;;;;;;;58.73;32.57;;;;;;;2.18;100.00;100769.90;1476446;88;21757;-80
2024/03/08 05:15:14;;;;;;;64.57;31.60;;;;;;;2.19;100.00;100769.83;1455401;88;22522;-80
2024/03/08 05:17:41;;;;;;;58.70;30.93;;;;;;;2.11;100.00;100771.19;1459893;88;22122;-80
2024/03/08 05:20:12;;;;;;;51.07;30.33;;;;;;;2.12;100.00;100776.30;1465747;88;22162;-80
2024/03/08 05:22:37;;;;;;;54.63;28.30;;;;;;;2.11;100.00;100784.23;1467019;88;21940;-79
2024/03/08 05:25:04;;;;;;;53.23;31.10;;;;;;;2.05;100.00;100771.53;1477149;88;22074;-80
2024/03/08 05:27:30;;;;;;;51.83;27.77;;;;;;;2.04;100.00;100770.66;1461159;88;22088;-80
2024/03/08 05:29:56;;;;;;;50.23;27.80;;;;;;;2.06;100.00;100779.25;1456438;88;22012;-79
2024/03/08 05:32:23;;;;;;;52.67;30.40;;;;;;;2.06;100.00;100779.25;1464528;88;21777;-80
2024/03/08 05:34:49;;;;;;;53.57;29.53;;;;;;;2.01;100.00;100773.44;1457066;88;22963;-79
2024/03/08 05:37:15;;;;;;;53.17;31.57;;;;;;;2.01;100.00;100773.44;1473628;88;22000;-80
2024/03/08 05:39:42;;;;;;;49.60;27.30;;;;;;;2.05;100.00;100780.20;1465963;88;21925;-80
2024/03/08 05:42:08;;;;;;;57.03;28.33;;;;;;;2.05;100.00;100780.20;1469526;88;21941;-79
2024/03/08 05:44:35;;;;;;;52.30;29.63;;;;;;;2.11;100.00;100783.77;1473351;88;21918;-79
2024/03/08 05:47:01;;;;;;;51.67;27.67;;;;;;;2.11;100.00;100782.47;1471830;88;22872;-79
2024/03/08 05:49:28;;;;;;;56.67;29.07;;;;;;;2.11;100.00;100782.47;1463383;88;23134;-79
2024/03/08 05:51:54;;;;;;;54.80;32.10;;;;;;;2.16;100.00;100795.28;1476003;88;21958;-78
2024/03/08 05:54:24;;;;;;;53.87;30.70;;;;;;;2.25;100.00;100798.68;1472168;88;22170;-79
2024/03/08 05:56:52;;;;;;;52.53;29.63;;;;;;;2.25;100.00;100798.68;1475079;88;22024;-79
2024/03/08 05:59:18;;;;;;;58.20;29.83;;;;;;;2.28;100.00;100802.42;1462570;88;22215;-79
2024/03/08 06:01:46;;;;;;;52.03;30.27;;;;;;;2.35;100.00;100793.77;1473688;88;22251;-80
2024/03/08 06:04:12;;;;;;;53.73;30.43;;;;;;;2.30;100.00;100785.34;1470440;88;22109;-80
2024/03/08 06:06:39;;;;;;;49.37;29.60;;;;;;;2.29;100.00;100800.66;1469464;88;23144;-79
2024/03/08 06:09:22;;;;;;;53.93;28.93;;;;;;;2.29;100.00;100800.66;1472518;88;22088;-79
2024/03/08 06:11:39;;;;;;;54.90;32.55;;;;;;;2.28;100.00;100793.28;1460169;88;22840;-79
2024/03/08 06:14:05;;;;;;;52.83;28.37;;;;;;;2.30;100.00;100795.33;1470473;88;21579;-79
2024/03/08 06:16:33;;;;;;;63.53;33.97;;;;;;;2.26;100.00;100792.05;1468302;88;22886;-79
2024/03/08 06:19:01;;;;;;;51.63;29.87;;;;;;;2.30;100.00;100804.94;1468226;88;22193;-78
2024/03/08 06:21:28;;;;;;;58.37;32.73;;;;;;;2.30;100.00;100802.33;1464065;88;22952;-79
2024/03/08 06:23:55;;;;;;;53.23;28.63;;;;;;;2.25;100.00;100802.59;1472685;88;22032;-79
2024/03/08 06:26:22;;;;;;;58.87;31.67;;;;;;;2.19;100.00;100805.55;1474557;88;21938;-79
2024/03/08 06:28:49;;;;;;;63.40;31.23;;;;;;;2.22;100.00;100810.14;1472333;88;22103;-79
2024/03/08 06:31:15;;;;;;;62.13;34.80;;;;;;;2.19;100.00;100797.72;1468196;88;23192;-79
2024/03/08 06:33:41;;;;;;;58.70;32.23;;;;;;;2.23;100.00;100801.36;1470544;88;22199;-79
2024/03/08 06:36:09;;;;;;;55.73;33.37;;;;;;;2.32;100.00;100799.17;1465809;88;21814;-79
2024/03/08 06:38:35;;;;;;;59.20;34.27;;;;;;;2.32;100.00;100799.17;1467532;88;22296;-77
2024/03/08 06:41:03;;;;;;;55.87;30.53;;;;;;;2.34;100.00;100801.24;1460319;88;23021;-79
2024/03/08 06:43:34;;;;;;;54.93;29.90;;;;;;;2.44;100.00;100812.84;1471970;88;21978;-79
2024/03/08 06:45:58;;;;;;;59.43;30.10;;;;;;;2.44;100.00;100812.84;1475084;88;22266;-79
2024/03/08 06:48:24;;;;;;;50.87;30.07;;;;;;;2.49;100.00;100807.73;1457140;88;22074;-79
2024/03/08 06:50:50;;;;;;;58.57;35.13;;;;;;;2.62;100.00;100818.83;1460276;88;22354;-79
2024/03/08 06:53:19;;;;;;;64.57;34.47;;;;;;;2.62;100.00;100792.70;1478220;88;21889;-79
2024/03/08 06:55:45;;;;;;;62.63;34.83;;;;;;;2.75;100.00;100813.73;1456174;88;22651;-79
2024/03/08 06:58:11;;;;;;;58.23;32.47;;;;;;;2.99;100.00;100820.14;1469464;88;22093;-79
2024/03/08 07:00:38;;;;;;;58.23;32.77;;;;;;;3.15;100.00;100805.23;1472481;88;22155;-80
2024/03/08 07:03:08;;;;;;;53.03;29.00;;;;;;;3.30;100.00;100813.11;1456612;88;23026;-80
2024/03/08 07:05:35;;;;;;;62.67;33.70;;;;;;;3.39;100.00;100807.32;1477927;88;22258;-80
2024/03/08 07:08:01;;;;;;;56.43;32.37;;;;;;;3.56;100.00;100812.84;1463945;88;23190;-80
2024/03/08 07:10:28;;;;;;;47.10;29.83;;;;;;;3.61;100.00;100812.94;1462887;88;22305;-80
2024/03/08 07:12:55;;;;;;;59.60;33.23;;;;;;;3.66;100.00;100817.53;1468658;88;21427;-80
2024/03/08 07:15:23;;;;;;;58.43;34.37;;;;;;;3.72;100.00;100817.53;1467057;88;21331;-78
2024/03/08 07:17:52;;;;;;;58.73;33.23;;;;;;;3.83;100.00;100809.02;1474766;88;21390;-80
2024/03/08 07:20:18;;;;;;;48.63;29.57;;;;;;;3.90;100.00;100814.71;1473607;88;21508;-80
2024/03/08 07:22:51;;;;;;;55.03;31.37;;;;;;;3.86;100.00;100811.45;1469061;88;21487;-80
2024/03/08 07:25:21;;;;;;;56.37;32.70;;;;;;;3.95;100.00;100810.88;1467971;88;22301;-80
2024/03/08 07:27:50;;;;;;;63.70;35.63;;;;;;;4.00;100.00;100810.13;1472929;88;21464;-79
2024/03/08 07:31:16;;;;;;;56.87;33.27;;;;;;;4.14;100.00;100810.54;1466159;88;21463;-79
2024/03/08 07:32:45;;;;;;;51.97;29.73;;;;;;;4.33;100.00;100807.61;1459561;88;21397;-79
2024/03/08 07:35:12;;;;;;;102.50;48.30;;;;;;;4.47;100.00;100801.48;1471234;88;22374;-79
2024/03/08 07:37:39;;;;;;;57.03;30.67;;;;;;;4.59;100.00;100806.39;1473040;88;21493;-79
2024/03/08 07:40:07;;;;;;;44.93;27.47;;;;;;;4.66;100.00;100805.04;1469948;88;21923;-79
2024/03/08 07:42:34;;;;;;;52.03;28.07;;;;;;;4.59;100.00;100810.33;1464503;88;21309;-80
2024/03/08 07:45:00;;;;;;;55.50;27.70;;;;;;;4.60;100.00;100806.75;1466301;88;22344;-79
2024/03/08 07:47:26;;;;;;;48.37;29.07;;;;;;;4.80;100.00;100806.28;1438554;88;22063;-80
2024/03/08 07:49:54;;;;;;;44.33;27.90;;;;;;;5.05;100.00;100803.36;1451285;88;21464;-80
2024/03/08 07:52:20;;;;;;;48.27;30.00;;;;;;;5.19;100.00;100804.10;1449884;88;21398;-79
2024/03/08 07:54:46;;;;;;;52.90;28.60;;;;;;;5.20;100.00;100804.46;1470331;88;21352;-79
2024/03/08 07:57:12;;;;;;;44.33;26.83;;;;;;;5.36;100.00;100799.02;1468480;88;21661;-80
2024/03/08 07:59:39;;;;;;;46.37;27.57;;;;;;;5.58;100.00;100809.34;1466899;88;21470;-79
2024/03/08 08:02:05;;;;;;;47.57;29.07;;;;;;;5.82;100.00;100809.45;1466760;88;21354;-80
2024/03/08 08:04:31;;;;;;;44.00;26.03;;;;;;;6.00;100.00;100809.96;1469362;88;21324;-79
2024/03/08 08:06:57;;;;;;;43.33;26.83;;;;;;;6.06;100.00;100801.64;1468049;88;21354;-79
2024/03/08 08:09:34;;;;;;;44.30;26.87;;;;;;;6.20;100.00;100801.97;1445284;88;21545;-79
2024/03/08 08:11:57;;;;;;;46.83;26.53;;;;;;;6.44;100.00;100802.81;1455458;88;22300;-79
2024/03/08 08:14:24;;;;;;;44.07;26.97;;;;;;;6.39;100.00;100810.22;1472460;88;22456;-79
2024/03/08 08:16:52;;;;;;;42.10;26.63;;;;;;;6.44;100.00;100803.29;1475790;88;21383;-80
2024/03/08 08:19:19;;;;;;;44.10;25.73;;;;;;;6.32;100.00;100811.11;1467693;88;22463;-80
2024/03/08 08:21:45;;;;;;;45.87;25.13;;;;;;;6.43;100.00;100802.94;1475406;88;21339;-80
2024/03/08 08:24:12;;;;;;;42.40;25.10;;;;;;;6.66;100.00;100811.29;1460962;88;21517;-79
2024/03/08 08:26:38;;;;;;;39.87;23.83;;;;;;;6.88;100.00;100809.72;1469702;88;21442;-79
2024/03/08 08:29:06;;;;;;;41.27;26.33;;;;;;;7.01;100.00;100809.14;1461198;88;21308;-80
2024/03/08 08:31:36;;;;;;;40.23;24.30;;;;;;;7.13;100.00;100806.89;1460224;88;21412;-79
2024/03/08 08:34:02;;;;;;;39.23;24.80;;;;;;;7.17;100.00;100805.72;1470094;88;21434;-82
2024/03/08 08:36:29;;;;;;;43.37;26.90;;;;;;;7.19;100.00;100807.77;1465059;88;21450;-78
2024/03/08 08:38:58;;;;;;;42.50;25.83;;;;;;;7.41;100.00;100811.38;1462578;88;21479;-77
2024/03/08 08:41:27;;;;;;;39.47;26.23;;;;;;;7.56;100.00;100808.88;1469735;88;22514;-81
2024/03/08 08:43:53;;;;;;;44.47;26.43;;;;;;;7.50;100.00;100811.98;1472201;88;21420;-83
2024/03/08 08:46:21;;;;;;;47.27;28.93;;;;;;;7.63;100.00;100808.77;1469420;88;21301;-80
2024/03/08 08:48:47;;;;;;;42.33;26.97;;;;;;;7.75;100.00;100811.41;1474178;88;21375;-80
2024/03/08 08:51:13;;;;;;;46.57;25.57;;;;;;;7.38;100.00;100811.62;1465448;88;21560;-80
2024/03/08 08:53:42;;;;;;;41.43;23.60;;;;;;;7.65;100.00;100814.77;1471449;88;21435;-80
2024/03/08 08:56:14;;;;;;;43.33;25.37;;;;;;;7.83;100.00;100812.97;1477563;88;21391;-80
2024/03/08 08:58:43;;;;;;;37.03;24.20;;;;;;;8.08;100.00;100806.09;1474053;88;21441;-80
2024/03/08 09:01:10;;;;;;;42.60;26.40;;;;;;;8.37;100.00;100806.87;1470173;88;21456;-79
2024/03/08 09:03:40;;;;;;;39.70;24.03;;;;;;;8.37;100.00;100809.51;1470377;88;22564;-81
2024/03/08 09:06:10;;;;;;;39.18;26.12;;;;;;;8.03;100.00;100810.09;1470744;88;21565;-80
2024/03/08 09:08:38;;;;;;;38.27;23.97;;;;;;;7.98;100.00;100805.16;1462207;88;21582;-77
2024/03/08 09:11:05;;;;;;;40.57;26.77;;;;;;;7.96;100.00;100803.13;1476369;88;22212;-77
2024/03/08 09:13:38;;;;;;;40.87;27.17;;;;;;;7.98;100.00;100801.21;1473262;88;21317;-77
2024/03/08 09:16:05;;;;;;;45.97;27.07;;;;;;;7.90;100.00;100800.48;1472968;88;21382;-77
2024/03/08 09:18:32;;;;;;;35.13;24.23;;;;;;;8.12;100.00;100795.67;1477218;88;22492;-80
2024/03/08 09:20:59;;;;;;;38.93;23.17;;;;;;;7.99;100.00;100793.65;1470506;88;21449;-80
2024/03/08 09:23:30;;;;;;;40.00;25.03;;;;;;;8.09;100.00;100789.34;1467594;88;21538;-81
2024/03/08 09:25:54;;;;;;;33.10;23.33;;;;;;;8.34;100.00;100793.94;1467040;88;22357;-84
2024/03/08 09:28:20;;;;;;;40.97;23.80;;;;;;;8.35;100.00;100783.77;1470375;88;21361;-85
2024/03/08 09:30:47;;;;;;;34.90;22.57;;;;;;;8.45;100.00;100792.62;1468987;88;22351;-86
2024/03/08 09:33:17;;;;;;;34.50;22.30;;;;;;;8.39;100.00;100792.29;1465050;88;21504;-84
2024/03/08 09:35:41;;;;;;;33.13;21.77;;;;;;;8.38;100.00;100798.51;1468211;88;22337;-86
2024/03/08 09:38:12;;;;;;;38.03;23.63;;;;;;;8.39;100.00;100787.84;1468707;88;22469;-82
2024/03/08 09:40:35;;;;;;;37.90;23.53;;;;;;;8.58;100.00;100793.30;1455926;88;21501;-80
2024/03/08 09:43:03;;;;;;;36.17;23.17;;;;;;;8.87;100.00;100791.38;1461228;88;21295;-80
2024/03/08 09:45:31;;;;;;;36.97;23.23;;;;;;;9.21;100.00;100789.87;1470685;88;21560;-81
2024/03/08 09:47:58;;;;;;;37.53;23.20;;;;;;;9.43;100.00;100789.70;1451309;88;21495;-80
2024/03/08 09:50:27;;;;;;;34.87;21.43;;;;;;;9.71;100.00;100789.48;1473853;88;22313;-81
2024/03/08 09:52:57;;;;;;;37.50;23.17;;;;;;;9.84;100.00;100792.38;1482841;88;21331;-80
2024/03/08 09:55:24;;;;;;;33.40;24.10;;;;;;;9.97;100.00;100784.22;1453491;88;21495;-80
2024/03/08 10:00:38;;;;;;;33.30;22.90;;;;;;;10.14;69.41;100785.72;1461184;88;21461;-77
2024/03/08 10:03:05;;;;;;;37.13;23.17;;;;;;;9.80;67.07;100783.88;1462703;88;21667;-77
2024/03/08 10:05:34;;;;;;;33.17;21.53;;;;;;;9.86;63.18;100788.63;1472000;88;22292;-77
2024/03/08 10:08:01;;;;;;;34.60;22.77;;;;;;;10.12;66.10;100778.89;1471637;88;22219;-77
2024/03/08 10:10:27;;;;;;;35.97;22.23;;;;;;;10.36;65.97;100782.05;1466709;88;21647;-76
2024/03/08 10:12:54;;;;;;;33.83;22.10;;;;;;;10.53;65.79;100779.67;1462742;88;21500;-76
2024/03/08 10:15:20;;;;;;;28.23;20.50;;;;;;;10.64;65.49;100782.18;1469226;88;21740;-77
2024/03/08 10:17:46;;;;;;;38.10;23.37;;;;;;;10.27;60.40;100784.66;1475962;88;21390;-77
2024/03/08 10:20:17;;;;;;;29.40;20.20;;;;;;;10.19;63.32;100782.68;1467236;88;21553;-77
2024/03/08 10:22:44;;;;;;;35.80;21.85;;;;;;;10.07;62.12;100790.36;1473770;88;21279;-76
2024/03/08 10:25:14;;;;;;;34.17;22.60;;;;;;;9.98;62.88;100781.92;1470565;88;22455;-76
2024/03/08 10:27:43;;;;;;;31.77;22.00;;;;;;;10.00;63.59;100785.27;1474180;88;21376;-76
2024/03/08 10:30:19;;;;;;;34.07;22.87;;;;;;;10.01;63.69;100786.94;1475769;88;21390;-76
2024/03/08 10:32:44;;;;;;;34.30;20.57;;;;;;;10.15;64.53;100790.52;1472835;88;21390;-77
2024/03/08 10:35:12;;;;;;;30.13;20.33;;;;;;;10.36;65.52;100788.66;1456843;88;21419;-81
2024/03/08 10:37:58;;;;;;;30.87;21.50;;;;;;;10.47;64.26;100779.77;1477735;88;21360;-82
2024/03/08 10:40:20;;;;;;;31.85;20.08;;;;;;;10.65;64.28;100777.25;1472996;88;21487;-85
2024/03/08 10:43:00;;;;;;;29.73;21.27;;;;;;;10.61;62.97;100775.84;1466069;88;21420;-84
2024/03/08 10:45:43;;;;;;;28.65;19.20;;;;;;;10.89;64.38;100773.33;1469252;88;21456;-83
2024/03/08 10:48:31;;;;;;;34.10;22.17;;;;;;;10.95;59.57;100764.82;1467236;88;21464;-84
2024/03/08 10:51:02;;;;;;;39.93;24.47;;;;;;;11.04;59.49;100768.77;1483259;88;21250;-83
2024/03/08 10:53:29;;;;;;;32.88;22.13;;;;;;;11.11;60.75;100761.59;1473737;88;21537;-85
2024/03/08 10:55:59;;;;;;;32.27;21.47;;;;;;;11.16;60.56;100764.62;1469747;88;21530;-85
2024/03/08 10:58:27;;;;;;;31.52;22.58;;;;;;;11.12;59.97;100766.73;1460147;88;21464;-82
2024/03/08 11:00:57;;;;;;;30.20;22.50;;;;;;;11.10;59.22;100759.91;1469742;88;21479;-84
2024/03/08 11:03:45;;;;;;;33.63;23.27;;;;;;;11.28;59.52;100755.56;1472652;88;21534;-85
2024/03/08 11:06:31;;;;;;;32.00;21.37;;;;;;;11.50;60.83;100759.64;1474721;88;21383;-84
2024/03/08 11:08:58;;;;;;;32.20;22.97;;;;;;;11.72;59.96;100761.09;1468686;88;21419;-83
2024/03/08 11:11:32;;;;;;;31.23;21.67;;;;;;;11.55;56.68;100760.05;1464654;88;21331;-84
2024/03/08 11:13:59;;;;;;;32.43;21.70;;;;;;;11.51;57.05;100755.54;1469799;88;21383;-83